Nearby METAR Reports

 

KTKI - Mckinney, Texas, USA
Distance from station: NE 9mi, 14km
Observations as of: 08/16/2018 1:53pm
Clear
Clear
 Wind from S
Wind: S 14 mph , 22 km/h
Temperature: 95°F , 35°C
Heat Index: 103°F , 39°C
Dew Point: 72°F , 22°C
Humidity: 47%
Barometer: 30.01 inHg , 1016.3 hPa
Clouds: Clear
Visibility: 10 miles , 16 km
2018/08/16 18:53 KTKI 161853Z 19012KT 10SM CLR 35/22 A3001 RMK AO2 SLP154 T03500222
KADS - Dallas/Addison, Texas, USA
Distance from station: SW 11mi, 18km
Observations as of: 08/16/2018 1:47pm
Clear
Clear
 Wind from S
Wind: S 6 mph , 9 km/h
Temperature: 93°F , 34°C
Heat Index: 100°F , 38°C
Dew Point: 72°F , 22°C
Humidity: 49%
Barometer: 30.02 inHg , 1016.6 hPa
Clouds: Clear
Visibility: 10 miles , 16 km
2018/08/16 18:47 KADS 161847Z 19005KT 10SM SKC 34/22 A3002
 
KF46 - Rockwall, Texas, USA
Distance from station: SE 19mi, 30km
Observations as of: 08/16/2018 2:35pm
Clear
Clear
 Wind from S
Wind: S 12 mph , 19 km/h, Gust: 17 mph , 28 km/h
Temperature: 93°F , 34°C
Heat Index: 103°F , 39°C
Dew Point: 73°F , 23°C
Humidity: 53%
Barometer: 30.02 inHg , 1016.6 hPa
Clouds: Clear
Visibility: 10 miles , 16 km
2018/08/16 19:35 KF46 161935Z AUTO 18010G15KT 10SM CLR 34/23 A3002 RMK AO2 T03440228
KDAL - Dallas/Love Fld, Texas, USA
Distance from station: SSW 19mi, 31km
Observations as of: 08/16/2018 1:53pm
Few Clouds
Few Clouds
 Wind from SSE
Wind: SSE 14 mph , 22 km/h
Temperature: 97°F , 36°C
Heat Index: 106°F , 41°C
Dew Point: 72°F , 22°C
Humidity: 44%
Barometer: 30.00 inHg , 1015.9 hPa
Clouds: Few Clouds
Visibility: 10 miles , 16 km
Cloud details: Few Clouds 4500 ft
Few Clouds 30000 ft
2018/08/16 18:53 KDAL 161853Z 16012KT 10SM FEW045 FEW300 36/22 A3000 RMK AO2 SLP150 T03610217
 
KDFW - Dallas/Ft Worth, Texas, USA
Distance from station: SW 23mi, 37km
Observations as of: 08/16/2018 1:53pm
Partly cloudy
Partly cloudy
 Wind from S
Wind: S 10 mph , 17 km/h
Temperature: 95°F , 35°C
Heat Index: 103°F , 39°C
Dew Point: 72°F , 22°C
Humidity: 47%
Barometer: 29.99 inHg , 1015.6 hPa
Clouds: Partly cloudy
Visibility: 10 miles , 16 km
Cloud details: Few Clouds 5000 ft
Partly cloudy 30000 ft
2018/08/16 18:53 KDFW 161853Z 18009KT 10SM FEW050 SCT300 35/22 A2999 RMK AO2 SLP146 T03500217
KHQZ - Mesquite, Texas, USA
Distance from station: SSE 26mi, 41km
Observations as of: 08/16/2018 1:50pm
Clear
Clear
 Wind from S
Wind: S 9 mph , 15 km/h, Gust: 20 mph , 31 km/h
Temperature: 93°F , 34°C
Heat Index: 100°F , 38°C
Dew Point: 72°F , 22°C
Humidity: 49%
Barometer: 30.02 inHg , 1016.6 hPa
Clouds: Clear
Visibility: 10 miles , 16 km
2018/08/16 18:50 KHQZ 161850Z 18008G17KT 10SM CLR 34/22 A3002
 
KDTO - Denton, Texas, USA
Distance from station: WNW 30mi, 48km
Observations as of: 08/16/2018 1:53pm
Few Clouds
Few Clouds
 Wind from S
Wind: S 9 mph , 15 km/h
Temperature: 97°F , 36°C
Heat Index: 106°F , 41°C
Dew Point: 72°F , 22°C
Humidity: 44%
Barometer: 30.00 inHg , 1015.9 hPa
Clouds: Few Clouds
Visibility: 10 miles , 16 km
Cloud details: Few Clouds 5500 ft
2018/08/16 18:53 KDTO 161853Z 18008KT 10SM FEW055 36/22 A3000 RMK AO2 SLP148 T03560217 $
KRBD - Dallas/Redbird, Texas, USA
Distance from station: SSW 30mi, 49km
Observations as of: 08/16/2018 1:53pm
Clear
Clear
 Wind from S
Wind: S 9 mph , 15 km/h, Gust: 16 mph , 26 km/h
Temperature: 97°F , 36°C
Heat Index: 106°F , 41°C
Dew Point: 72°F , 22°C
Humidity: 44%
Barometer: 30.01 inHg , 1016.3 hPa
Clouds: Clear
Visibility: 10 miles , 16 km
2018/08/16 18:53 KRBD 161853Z 17008G14KT 10SM CLR 36/22 A3001 RMK AO2 SLP150 T03610217
 
KGPM - Grand Prairie, Texas, USA
Distance from station: SW 34mi, 55km
Observations as of: 08/16/2018 1:50pm
Clear
Clear
 Wind from SSE
Wind: SSE 12 mph , 19 km/h, Gust: 17 mph , 28 km/h
Temperature: 93°F , 34°C
Heat Index: 96°F , 36°C
Dew Point: 66°F , 19°C
Humidity: 41%
Barometer: 30.02 inHg , 1016.6 hPa
Clouds: Clear
Visibility: 10 miles , 16 km
2018/08/16 18:50 KGPM 161850Z 15010G15KT 10SM SKC 34/19 A3002
KLNC - Lancaster, Texas, USA
Distance from station: S 35mi, 57km
Observations as of: 08/16/2018 2:35pm
Clear
Clear
 Wind from S
Wind: S 9 mph , 15 km/h
Temperature: 93°F , 34°C
Heat Index: 103°F , 39°C
Dew Point: 73°F , 23°C
Humidity: 53%
Barometer: 30.01 inHg , 1016.3 hPa
Clouds: Clear
Visibility: 10 miles , 16 km
2018/08/16 19:35 KLNC 161935Z AUTO 17008KT 10SM CLR 34/23 A3001 RMK AO2 T03420226
 
KTRL - Terrell, Texas, USA
Distance from station: SE 36mi, 58km
Observations as of: 08/16/2018 1:53pm
Clear
Clear
 Wind from SSE
Wind: SSE 10 mph , 17 km/h
Temperature: 93°F , 34°C
Heat Index: 103°F , 39°C
Dew Point: 73°F , 23°C
Humidity: 53%
Barometer: 30.02 inHg , 1016.6 hPa
Clouds: Clear
Visibility: 10 miles , 16 km
2018/08/16 18:53 KTRL 161853Z AUTO 16009KT 10SM CLR 34/23 A3002 RMK AO2 SLP159 T03440228
KGVT - Greenville/Major, Texas, USA
Distance from station: E 37mi, 59km
Observations as of: 08/16/2018 2:30pm
Clear
Clear
 Wind from S
Wind: S 9 mph , 15 km/h
Temperature: 97°F , 36°C
Heat Index: 106°F , 41°C
Dew Point: 72°F , 22°C
Humidity: 44%
Barometer: 30.02 inHg , 1016.6 hPa
Clouds: Clear
Visibility: 10 miles , 16 km
2018/08/16 19:30 KGVT 161930Z AUTO 17008KT 155V215 10SM CLR 36/22 A3002 RMK AO2
 
KAFW - Ft Worth/Allianc, Texas, USA
Distance from station: WSW 37mi, 60km
Observations as of: 08/16/2018 1:53pm
Partly cloudy
Partly cloudy
 Wind from S
Wind: S 13 mph , 20 km/h, Gust: 21 mph , 33 km/h
Temperature: 97°F , 36°C
Heat Index: 106°F , 41°C
Dew Point: 72°F , 22°C
Humidity: 44%
Barometer: 30.00 inHg , 1015.9 hPa
Clouds: Partly cloudy
Visibility: 10 miles , 16 km
Cloud details: Few Clouds 5000 ft
Partly cloudy 30000 ft
2018/08/16 18:53 KAFW 161853Z 19011G18KT 10SM FEW050 SCT300 36/22 A3000 RMK AO2 SLP141 T03560217
KGKY - Arlington, Texas, USA
Distance from station: SW 38mi, 61km
Observations as of: 08/16/2018 1:53pm
Clear
Clear
 Wind from SSE
Wind: SSE 15 mph , 24 km/h, Gust: 18 mph , 30 km/h
Temperature: 97°F , 36°C
Heat Index: 106°F , 41°C
Dew Point: 72°F , 22°C
Humidity: 44%
Barometer: 30.00 inHg , 1015.9 hPa
Clouds: Clear
Visibility: 10 miles , 16 km
2018/08/16 18:53 KGKY 161853Z 15013G16KT 10SM CLR 36/22 A3000 RMK AO2 SLP149 T03560222
 
KFTW - Fort Worth, Texas, USA
Distance from station: WSW 43mi, 69km
Observations as of: 08/16/2018 1:53pm
Clear
Clear
 Wind from SSE
Wind: SSE 14 mph , 22 km/h
Temperature: 97°F , 36°C
Heat Index: 108°F , 42°C
Dew Point: 73°F , 23°C
Humidity: 47%
Barometer: 30.00 inHg , 1015.9 hPa
Clouds: Clear
Visibility: 10 miles , 16 km
2018/08/16 18:53 KFTW 161853Z 16012KT 10SM CLR 36/23 A3000 RMK AO2 SLP146 T03610228 $
KGYI - Sherman/Denison, Texas, USA
Distance from station: N 43mi, 69km
Observations as of: 08/16/2018 2:35pm
Clear
Clear
 Wind from S
Wind: S 10 mph , 17 km/h
Temperature: 95°F , 35°C
Heat Index: 101°F , 38°C
Dew Point: 70°F , 21°C
Humidity: 44%
Barometer: 30.01 inHg , 1016.3 hPa
Clouds: Clear
Visibility: 10 miles , 16 km
2018/08/16 19:35 KGYI 161935Z AUTO 19009KT 10SM CLR 35/21 A3001 RMK AO2 T03490210
 
KJWY - Midlothian/Wax, Texas, USA
Distance from station: SSW 46mi, 75km
Observations as of: 08/16/2018 2:35pm
Clear
Clear
 Wind from SSE
Wind: SSE 10 mph , 17 km/h, Gust: 17 mph , 28 km/h
Temperature: 95°F , 35°C
Heat Index: 101°F , 38°C
Dew Point: 70°F , 21°C
Humidity: 44%
Barometer: 30.02 inHg , 1016.6 hPa
Clouds: Clear
Visibility: 10 miles , 16 km
2018/08/16 19:35 KJWY 161935Z AUTO 16009G15KT 10SM CLR 35/21 A3002 RMK AO2 T03480213
KGLE - Gainesville, Texas, USA
Distance from station: NW 48mi, 77km
Observations as of: 08/16/2018 2:35pm
Partly cloudy
Partly cloudy
 Wind from SSW
Wind: SSW 8 mph , 13 km/h
Temperature: 95°F , 35°C
Heat Index: 101°F , 38°C
Dew Point: 70°F , 21°C
Humidity: 44%
Barometer: 30.02 inHg , 1016.6 hPa
Clouds: Partly cloudy
Visibility: 10 miles , 16 km
Cloud details: Partly cloudy 6000 ft
2018/08/16 19:35 KGLE 161935Z AUTO 20007KT 10SM SCT060 35/21 A3002 RMK AO2 T03520212
 
KNFW - Fort Worth Nas, Texas, USA
Distance from station: WSW 48mi, 77km
Observations as of: 08/16/2018 1:52pm

 
Visibility: 27 miles
2018/08/16 18:52 KNFW 161852Z 17010G18 140V200 10SM FEW080 SCT250 26/21 A3001 RMK SLP144 T03560206 $